createdAt,value
2022-09-02T00:02:55.351Z,42.49
2022-09-02T00:07:59.033Z,42.83
2022-09-02T00:13:04.874Z,42.97
2022-09-02T00:18:15.443Z,43.20
2022-09-02T00:23:19.792Z,43.56
2022-09-02T00:28:24.921Z,43.91
2022-09-02T00:33:28.804Z,43.77
2022-09-02T00:38:33.820Z,43.78
2022-09-02T00:43:46.265Z,44.28
2022-09-02T00:48:57.077Z,44.23
2022-09-02T00:54:01.337Z,44.72
2022-09-02T00:59:07.299Z,44.57
2022-09-02T01:04:11.220Z,44.37
2022-09-02T01:09:17.513Z,44.82
2022-09-02T01:14:24.150Z,44.82
2022-09-02T01:19:35.039Z,45.52
2022-09-02T01:24:39.861Z,45.32
2022-09-02T01:29:43.929Z,45.25
2022-09-02T01:34:47.955Z,45.31
2022-09-02T01:39:53.779Z,45.32
2022-09-02T01:44:57.859Z,45.22
2022-09-02T01:50:01.413Z,45.61
2022-09-02T01:55:09.071Z,45.56
2022-09-02T02:00:15.243Z,45.53
2022-09-02T02:05:19.181Z,45.57
2022-09-02T02:10:26.965Z,45.73
2022-09-02T02:20:35.254Z,46.09
2022-09-02T02:25:41.658Z,46.29
2022-09-02T02:30:45.190Z,46.25
2022-09-02T02:35:49.113Z,46.99
2022-09-02T02:40:58.221Z,46.77
2022-09-02T02:46:02.731Z,46.48
2022-09-02T02:51:07.543Z,46.39
2022-09-02T02:56:12.709Z,46.56
2022-09-02T03:01:16.398Z,46.66
2022-09-02T03:06:23.942Z,46.78
2022-09-02T03:11:32.195Z,47.22
2022-09-02T03:16:36.245Z,47.39
2022-09-02T03:21:40.007Z,47.45
2022-09-02T03:26:46.881Z,47.65
2022-09-02T03:31:50.751Z,47.72
2022-09-02T03:36:58.289Z,48.11
2022-09-02T03:42:03.445Z,48.16
2022-09-02T03:47:09.889Z,47.70
2022-09-02T03:52:13.549Z,47.85
2022-09-02T03:57:20.599Z,47.32
2022-09-02T04:02:25.510Z,47.50
2022-09-02T04:07:29.580Z,47.40
2022-09-02T04:12:34.591Z,47.64
2022-09-02T04:17:38.989Z,47.51
2022-09-02T04:22:45.031Z,47.57
2022-09-02T04:27:50.767Z,47.56
2022-09-02T04:32:54.750Z,47.87
2022-09-02T04:37:59.594Z,47.64
2022-09-02T04:43:04.923Z,47.99
2022-09-02T04:48:10.244Z,47.83
2022-09-02T04:53:14.603Z,48.24
2022-09-02T04:58:20.569Z,48.34
2022-09-02T05:03:26.428Z,48.75
2022-09-02T05:08:29.995Z,48.74
2022-09-02T05:13:35.267Z,48.98
2022-09-02T05:18:39.113Z,49.48
2022-09-02T05:23:44.529Z,49.17
2022-09-02T05:28:49.900Z,49.81
2022-09-02T05:33:54.413Z,50.02
2022-09-02T05:38:59.330Z,49.53
2022-09-02T05:44:06.619Z,49.92
2022-09-02T05:49:17.240Z,49.77
2022-09-02T05:54:28.680Z,50.47
2022-09-02T05:59:36.855Z,50.11
2022-09-02T06:04:41.473Z,49.69
2022-09-02T06:09:47.003Z,50.87
2022-09-02T06:14:52.070Z,49.75
2022-09-02T06:19:58.311Z,49.67
2022-09-02T06:25:04.424Z,49.69
2022-09-02T06:30:11.268Z,50.14
2022-09-02T06:35:15.297Z,50.00
2022-09-02T06:40:19.819Z,50.02
2022-09-02T06:45:26.801Z,49.77
2022-09-02T06:50:33.490Z,49.96
2022-09-02T06:55:37.612Z,50.24
2022-09-02T07:00:45.444Z,50.79
2022-09-02T07:05:59.509Z,51.34
2022-09-02T07:11:06.025Z,51.59
2022-09-02T07:16:11.170Z,50.98
2022-09-02T07:21:21.874Z,51.00
2022-09-02T07:26:25.894Z,51.36
2022-09-02T07:31:31.234Z,50.12
2022-09-02T07:36:36.730Z,51.92
2022-09-02T07:41:41.906Z,50.51
2022-09-02T07:46:48.486Z,49.58
2022-09-02T07:51:55.107Z,48.88
2022-09-02T07:56:59.826Z,46.43
2022-09-02T08:02:05.354Z,44.67
2022-09-02T08:07:09.164Z,41.98
2022-09-02T08:12:12.830Z,40.56
2022-09-02T08:17:18.414Z,40.02
2022-09-02T08:22:22.220Z,38.50
2022-09-02T08:27:27.578Z,36.98
2022-09-02T08:32:33.188Z,36.91
2022-09-02T08:37:37.598Z,37.12
2022-09-02T08:42:49.645Z,37.24
2022-09-02T08:48:05.844Z,37.57
2022-09-02T08:53:17.827Z,38.21
2022-09-02T08:58:24.500Z,39.13
2022-09-02T09:03:34.788Z,38.95
2022-09-02T09:08:48.787Z,39.67
2022-09-02T09:14:11.133Z,39.72
2022-09-02T09:19:17.665Z,40.50
2022-09-02T09:24:29.224Z,40.73
2022-09-02T09:29:34.462Z,41.09
2022-09-02T09:35:01.622Z,41.54
2022-09-02T09:40:28.342Z,41.67
2022-09-02T09:45:33.960Z,42.16
2022-09-02T09:50:38.955Z,42.17
2022-09-02T09:55:53.028Z,41.74
2022-09-02T10:01:00.739Z,42.09
2022-09-02T10:06:21.910Z,41.69
2022-09-02T10:11:26.346Z,41.52
2022-09-02T10:16:42.495Z,41.60
2022-09-02T10:22:05.403Z,41.50
2022-09-02T10:27:12.951Z,42.22
2022-09-02T10:32:49.299Z,41.50
2022-09-02T10:38:12.688Z,41.21
2022-09-02T10:43:30.807Z,40.35
2022-09-02T10:48:46.949Z,39.72
2022-09-02T10:54:09.712Z,38.71
2022-09-02T10:59:18.315Z,38.52
2022-09-02T11:04:37.834Z,38.30
2022-09-02T11:09:49.304Z,37.08
2022-09-02T11:15:03.923Z,37.22
2022-09-02T11:20:16.252Z,36.81
2022-09-02T11:25:25.743Z,36.53
2022-09-02T11:30:39.475Z,36.06
2022-09-02T11:35:44.460Z,36.12
2022-09-02T11:46:50.638Z,33.76
2022-09-02T11:52:06.477Z,33.62
2022-09-02T11:57:17.089Z,33.85
2022-09-02T12:02:35.787Z,33.47
2022-09-02T12:07:48.725Z,34.02
2022-09-02T12:13:09.547Z,33.58
2022-09-02T12:18:28.371Z,33.42
2022-09-02T12:24:20.936Z,31.58
2022-09-02T12:29:34.881Z,32.11
2022-09-02T12:34:55.256Z,32.25
2022-09-02T12:40:13.223Z,32.91
2022-09-02T12:45:29.148Z,32.14
2022-09-02T12:50:52.070Z,32.69
2022-09-02T12:55:58.621Z,32.41
2022-09-02T13:01:11.439Z,32.25
2022-09-02T13:06:25.420Z,32.53
2022-09-02T13:12:17.723Z,32.96
2022-09-02T13:17:37.516Z,33.81
2022-09-02T13:23:04.078Z,33.06
2022-09-02T13:28:33.518Z,33.48
2022-09-02T13:33:42.466Z,34.12
2022-09-02T13:38:46.428Z,34.22
2022-09-02T13:44:06.600Z,33.97
2022-09-02T13:49:22.762Z,34.18
2022-09-02T13:54:33.622Z,33.91
2022-09-02T13:59:39.848Z,33.83
2022-09-02T14:04:45.195Z,33.94
2022-09-02T14:09:49.202Z,33.60
2022-09-02T14:14:53.270Z,33.57
2022-09-02T14:20:21.601Z,33.30
2022-09-02T14:25:27.521Z,33.41
2022-09-02T14:30:34.797Z,33.05
2022-09-02T14:35:39.668Z,32.97
2022-09-02T14:40:44.729Z,32.56
2022-09-02T14:45:50.674Z,32.60
2022-09-02T14:51:02.899Z,32.30
2022-09-02T14:56:07.817Z,32.44
2022-09-02T15:01:12.307Z,32.00
2022-09-02T15:06:18.725Z,32.20
2022-09-02T15:11:24.566Z,32.17
2022-09-02T15:16:29.555Z,32.30
2022-09-02T15:21:34.533Z,32.26
2022-09-02T15:26:38.215Z,31.91
2022-09-02T15:31:42.347Z,31.97
2022-09-02T15:36:47.314Z,32.01
2022-09-02T15:41:51.674Z,32.19
2022-09-02T15:46:56.058Z,32.10
2022-09-02T15:52:02.395Z,32.24
2022-09-02T15:57:06.820Z,31.66
2022-09-02T16:02:10.555Z,31.81
2022-09-02T16:07:16.860Z,31.89
2022-09-02T16:12:21.088Z,32.08
2022-09-02T16:17:24.751Z,32.01
2022-09-02T16:22:29.735Z,31.97
2022-09-02T16:27:50.974Z,32.16
2022-09-02T16:32:54.664Z,32.46
2022-09-02T16:37:59.673Z,32.30
2022-09-02T16:43:03.922Z,32.42
2022-09-02T16:48:07.585Z,32.01
2022-09-02T16:53:12.660Z,32.08
2022-09-02T16:58:16.217Z,31.90
2022-09-02T17:03:20.097Z,31.55
2022-09-02T17:08:25.056Z,32.10
2022-09-02T17:13:28.638Z,32.16
2022-09-02T17:18:32.283Z,31.99
2022-09-02T17:23:37.214Z,32.18
2022-09-02T17:28:46.746Z,32.48
2022-09-02T17:33:50.947Z,32.58
2022-09-02T17:38:58.735Z,32.47
2022-09-02T17:44:02.402Z,32.95
2022-09-02T17:49:16.875Z,32.77
2022-09-02T17:54:22.867Z,33.63
2022-09-02T17:59:34.454Z,33.28
2022-09-02T18:04:49.473Z,34.19
2022-09-02T18:09:54.981Z,34.40
2022-09-02T18:14:59.814Z,34.54
2022-09-02T18:20:14.022Z,34.40
2022-09-02T18:25:31.457Z,34.41
2022-09-02T18:30:44.705Z,34.32
2022-09-02T18:36:00.731Z,34.44
2022-09-02T18:41:17.581Z,35.12
2022-09-02T18:46:25.108Z,35.10
2022-09-02T18:51:35.779Z,34.93
2022-09-02T18:56:45.928Z,35.34
2022-09-02T19:01:54.804Z,35.44
2022-09-02T19:07:18.855Z,35.14
2022-09-02T19:12:31.907Z,35.11
2022-09-02T19:17:35.581Z,35.44
2022-09-02T19:22:44.088Z,35.79
2022-09-02T19:27:52.910Z,35.63
2022-09-02T19:33:01.473Z,35.70
2022-09-02T19:38:05.620Z,35.97
2022-09-02T19:43:16.180Z,36.55
2022-09-02T19:48:20.752Z,36.10
2022-09-02T19:53:30.186Z,36.61
2022-09-02T19:58:35.600Z,36.83
2022-09-02T20:03:39.597Z,36.33
2022-09-02T20:08:43.307Z,36.35
2022-09-02T20:13:49.299Z,36.39
2022-09-02T20:18:55.189Z,36.94
2022-09-02T20:24:04.581Z,36.57
2022-09-02T20:29:29.804Z,37.00
2022-09-02T20:34:55.106Z,36.65
2022-09-02T20:40:34.935Z,37.12
2022-09-02T20:45:41.015Z,37.63
2022-09-02T20:50:50.267Z,37.45
2022-09-02T20:55:57.078Z,37.85
2022-09-02T21:01:08.338Z,37.93
2022-09-02T21:06:12.398Z,37.84
2022-09-02T21:11:16.872Z,37.79
2022-09-02T21:16:27.455Z,38.07
2022-09-02T21:21:37.693Z,37.99
2022-09-02T21:26:49.143Z,38.15
2022-09-02T21:31:59.226Z,38.04
2022-09-02T21:37:04.312Z,38.15
2022-09-02T21:42:22.076Z,38.54
2022-09-02T21:47:30.513Z,38.29
2022-09-02T21:52:45.148Z,38.77
2022-09-02T21:58:04.927Z,38.77
2022-09-02T22:03:16.372Z,38.98
2022-09-02T22:08:28.921Z,40.09
2022-09-02T22:13:33.496Z,39.46
2022-09-02T22:18:42.739Z,39.44
2022-09-02T22:23:46.491Z,39.10
2022-09-02T22:28:54.972Z,39.57
2022-09-02T22:34:03.199Z,39.78
2022-09-02T22:39:08.116Z,40.66
2022-09-02T22:44:16.892Z,41.41
2022-09-02T22:49:45.831Z,41.31
2022-09-02T22:54:50.148Z,41.73
2022-09-02T23:00:02.005Z,42.45
2022-09-02T23:05:46.967Z,41.92
2022-09-02T23:10:57.094Z,41.54
2022-09-02T23:16:11.901Z,41.41
2022-09-02T23:21:29.067Z,42.32
2022-09-02T23:26:41.087Z,43.33
2022-09-02T23:32:05.753Z,43.07
2022-09-02T23:37:17.957Z,43.50
2022-09-02T23:42:22.099Z,42.90
2022-09-02T23:47:40.741Z,43.62
2022-09-02T23:52:56.536Z,43.80
2022-09-02T23:58:26.885Z,43.43
